Time;durP1;ratioP1;P1;durP2;ratioP2;P2;SDS_P1;SDS_P2;PMS_P1;PMS_P2;Temp;Humidity;BMP_temperature;BMP_pressure;BME280_temperature;BME280_humidity;BME280_pressure;Samples;Min_cycle;Max_cycle;Signal;HPM_P1;HPM_P2
2023/10/16 00:01:26;;;;;;;2.85;0.40;;;;;;;;;;10436452;28;20227;-78
2023/10/16 00:06:27;;;;;;;0.30;0.30;;;;;;;;;;10406084;28;20214;-79
2023/10/16 00:11:28;;;;;;;0.93;0.45;;;;;;;;;;10393192;28;20227;-77
2023/10/16 00:16:32;;;;;;;0.38;0.20;;;;;;;;;;10416201;28;20214;-81
2023/10/16 00:21:43;;;;;;;0.10;0.10;;;;;;;;;;10421686;28;20217;-80
2023/10/16 00:26:51;;;;;;;2.83;0.43;;;;;;;;;;10437191;28;20230;-80
2023/10/16 00:31:52;;;;;;;1.35;0.40;;;;;;;;;;10437100;28;20229;-79
2023/10/16 00:36:53;;;;;;;0.13;0.13;;;;;;;;;;10413756;28;20211;-77
2023/10/16 00:41:57;;;;;;;1.52;0.38;;;;;;;;;;10427126;28;20237;-77
2023/10/16 00:46:58;;;;;;;0.57;0.20;;;;;;;;;;10413318;28;20252;-77
2023/10/16 00:52:06;;;;;;;6.22;0.30;;;;;;;;;;10415874;28;20245;-78
2023/10/16 00:57:08;;;;;;;1.30;0.30;;;;;;;;;;10431704;28;20301;-77
2023/10/16 01:07:14;;;;;;;0.28;0.28;;;;;;;;;;10416994;28;20672;-78
2023/10/16 01:12:15;;;;;;;0.85;0.30;;;;;;;;;;10421101;28;20222;-79
2023/10/16 01:17:17;;;;;;;3.30;0.30;;;;;;;;;;10416129;28;20292;-76
2023/10/16 01:22:22;;;;;;;2.85;0.45;;;;;;;;;;10414733;28;20226;-76
2023/10/16 01:27:26;;;;;;;1.38;0.22;;;;;;;;;;10406346;28;20231;-77
2023/10/16 01:32:28;;;;;;;2.05;0.20;;;;;;;;;;10387166;28;20230;-76
2023/10/16 01:37:30;;;;;;;0.98;0.32;;;;;;;;;;10406612;28;20214;-76
2023/10/16 01:42:31;;;;;;;6.13;0.70;;;;;;;;;;10419722;28;20265;-78
2023/10/16 01:47:34;;;;;;;2.42;0.30;;;;;;;;;;10413573;28;20329;-79
2023/10/16 01:52:35;;;;;;;2.92;0.20;;;;;;;;;;10409165;28;20218;-78
2023/10/16 01:57:38;;;;;;;0.52;0.30;;;;;;;;;;10407434;28;20207;-78
2023/10/16 02:02:39;;;;;;;0.88;0.32;;;;;;;;;;10420993;28;20207;-78
2023/10/16 02:07:43;;;;;;;2.10;0.70;;;;;;;;;;10428371;28;20214;-78
2023/10/16 02:12:44;;;;;;;0.20;0.20;;;;;;;;;;10387702;28;20219;-79
2023/10/16 02:17:46;;;;;;;0.80;0.20;;;;;;;;;;10393283;28;20211;-78
2023/10/16 02:22:47;;;;;;;1.90;0.17;;;;;;;;;;10407794;28;20217;-78
2023/10/16 02:27:50;;;;;;;1.35;0.20;;;;;;;;;;10421551;28;20226;-79
2023/10/16 02:32:53;;;;;;;1.00;0.30;;;;;;;;;;10426092;28;20214;-78
2023/10/16 02:37:57;;;;;;;1.55;0.20;;;;;;;;;;10401990;28;20218;-77
2023/10/16 02:43:03;;;;;;;0.75;0.50;;;;;;;;;;10409136;28;20223;-77
2023/10/16 02:48:09;;;;;;;2.13;0.30;;;;;;;;;;10389694;28;20229;-77
2023/10/16 02:53:11;;;;;;;2.05;0.32;;;;;;;;;;10407196;28;20288;-77
2023/10/16 02:58:12;;;;;;;1.75;0.20;;;;;;;;;;10424052;28;20215;-78
2023/10/16 03:03:14;;;;;;;1.48;0.50;;;;;;;;;;10428314;28;20916;-77
2023/10/16 03:08:18;;;;;;;0.52;0.30;;;;;;;;;;10411319;28;20215;-77
2023/10/16 03:13:19;;;;;;;1.60;0.40;;;;;;;;;;10409250;28;20227;-77
2023/10/16 03:18:22;;;;;;;4.13;0.40;;;;;;;;;;10413713;28;20432;-77
2023/10/16 03:23:23;;;;;;;1.65;0.50;;;;;;;;;;10398315;28;20219;-77
2023/10/16 03:28:24;;;;;;;0.60;0.50;;;;;;;;;;10416767;28;20226;-78
2023/10/16 03:33:25;;;;;;;5.53;0.40;;;;;;;;;;10403632;28;20226;-77
2023/10/16 03:38:36;;;;;;;0.35;0.35;;;;;;;;;;10412312;28;20797;-77
2023/10/16 03:43:37;;;;;;;1.63;0.40;;;;;;;;;;10420694;28;20206;-78
2023/10/16 03:48:38;;;;;;;0.43;0.43;;;;;;;;;;10419699;28;20219;-76
2023/10/16 03:53:40;;;;;;;1.98;0.40;;;;;;;;;;10434646;28;20283;-76
2023/10/16 03:58:41;;;;;;;3.30;0.70;;;;;;;;;;10403668;28;20899;-77
2023/10/16 04:03:56;;;;;;;1.05;0.50;;;;;;;;;;10420739;28;20314;-77
2023/10/16 04:08:59;;;;;;;5.38;0.80;;;;;;;;;;10400388;28;20869;-78
2023/10/16 04:14:00;;;;;;;1.88;0.50;;;;;;;;;;10431960;28;20214;-76
2023/10/16 04:24:30;;;;;;;1.17;0.75;;;;;;;;;;10412411;28;20224;-76
2023/10/16 04:29:45;;;;;;;2.40;0.80;;;;;;;;;;10434776;28;20230;-78
2023/10/16 04:34:52;;;;;;;0.60;0.60;;;;;;;;;;10431763;28;20302;-77
2023/10/16 04:50:27;;;;;;;5.43;1.00;;;;;;;;;;10414913;28;20254;-78
2023/10/16 05:00:57;;;;;;;1.85;0.70;;;;;;;;;;10424825;28;20210;-77
2023/10/16 05:16:35;;;;;;;2.58;0.88;;;;;;;;;;10411775;28;20214;-76
2023/10/16 06:14:47;;;;;;;1.02;1.02;;;;;;;;;;10408627;28;20202;-76
2023/10/16 06:19:51;;;;;;;0.70;0.70;;;;;;;;;;10401707;28;20217;-77
2023/10/16 06:24:52;;;;;;;0.95;0.65;;;;;;;;;;10387681;28;20225;-77
2023/10/16 06:29:57;;;;;;;1.50;0.65;;;;;;;;;;10405037;28;20245;-78
2023/10/16 06:35:00;;;;;;;0.95;0.75;;;;;;;;;;10424201;28;20206;-76
2023/10/16 06:40:04;;;;;;;2.17;0.90;;;;;;;;;;10401930;28;20758;-77
2023/10/16 06:45:07;;;;;;;2.05;1.13;;;;;;;;;;10388038;28;20701;-76
2023/10/16 06:55:25;;;;;;;2.72;1.13;;;;;;;;;;10409792;28;20341;-75
2023/10/16 07:00:32;;;;;;;2.30;1.00;;;;;;;;;;10429095;28;20336;-77
2023/10/16 07:05:42;;;;;;;0.90;0.90;;;;;;;;;;10402645;28;21047;-76
2023/10/16 07:10:55;;;;;;;2.17;1.00;;;;;;;;;;10420666;28;20284;-76
2023/10/16 07:15:57;;;;;;;1.25;0.80;;;;;;;;;;10408792;28;20673;-77
2023/10/16 07:25:59;;;;;;;3.10;1.00;;;;;;;;;;10426539;28;21146;-79
2023/10/16 07:31:02;;;;;;;0.95;0.95;;;;;;;;;;10426002;28;20738;-77
2023/10/16 07:36:10;;;;;;;2.22;0.77;;;;;;;;;;10393626;28;20867;-77
2023/10/16 07:41:18;;;;;;;2.90;0.60;;;;;;;;;;10427334;28;20218;-77
2023/10/16 07:46:29;;;;;;;2.58;0.55;;;;;;;;;;10427748;28;20214;-78
2023/10/16 07:51:30;;;;;;;0.80;0.80;;;;;;;;;;10409662;28;20314;-76
2023/10/16 07:56:32;;;;;;;0.82;0.82;;;;;;;;;;10411135;28;20664;-75
2023/10/16 08:06:39;;;;;;;2.20;0.73;;;;;;;;;;10420884;28;20405;-75
2023/10/16 08:11:43;;;;;;;0.80;0.80;;;;;;;;;;10387700;28;20229;-76
2023/10/16 08:16:45;;;;;;;1.85;0.98;;;;;;;;;;10424278;28;20322;-76
2023/10/16 08:21:46;;;;;;;2.28;0.90;;;;;;;;;;10388342;28;20214;-76
2023/10/16 08:26:48;;;;;;;1.05;0.95;;;;;;;;;;10405801;28;20748;-75
2023/10/16 08:37:11;;;;;;;1.02;1.00;;;;;;;;;;10412992;28;20207;-76
2023/10/16 08:47:25;;;;;;;0.90;0.90;;;;;;;;;;10408833;28;20233;-76
2023/10/16 08:52:34;;;;;;;1.73;0.90;;;;;;;;;;10428418;28;20226;-77
2023/10/16 08:57:37;;;;;;;1.15;1.05;;;;;;;;;;10428401;28;20230;-77
2023/10/16 09:02:39;;;;;;;1.08;1.08;;;;;;;;;;10418657;28;20286;-79
2023/10/16 09:07:40;;;;;;;2.75;1.02;;;;;;;;;;10418933;28;20245;-80
2023/10/16 09:12:54;;;;;;;0.85;0.85;;;;;;;;;;10385050;28;20381;-80
2023/10/16 09:17:55;;;;;;;2.85;0.93;;;;;;;;;;10436291;28;20233;-80
2023/10/16 09:23:01;;;;;;;1.38;0.90;;;;;;;;;;10410358;28;20273;-78
2023/10/16 09:28:04;;;;;;;1.13;0.82;;;;;;;;;;10430852;28;20268;-78
2023/10/16 09:33:06;;;;;;;0.93;0.93;;;;;;;;;;10395656;28;20229;-76
2023/10/16 09:38:17;;;;;;;5.43;0.80;;;;;;;;;;10404151;28;20222;-77
2023/10/16 09:43:24;;;;;;;1.42;1.00;;;;;;;;;;10420639;28;20302;-77
2023/10/16 09:48:26;;;;;;;1.17;0.90;;;;;;;;;;10427877;28;20224;-78
2023/10/16 09:53:30;;;;;;;0.57;0.57;;;;;;;;;;10396742;28;20233;-77
2023/10/16 09:58:34;;;;;;;1.60;0.93;;;;;;;;;;10407904;28;20214;-79
2023/10/16 10:03:38;;;;;;;1.00;0.55;;;;;;;;;;10415574;28;20369;-80
2023/10/16 10:14:09;;;;;;;0.60;0.60;;;;;;;;;;10430529;28;20229;-79
2023/10/16 10:19:35;;;;;;;1.50;0.70;;;;;;;;;;10409754;28;20238;-78
2023/10/16 10:24:37;;;;;;;1.63;0.90;;;;;;;;;;10425573;28;20227;-76
2023/10/16 10:29:47;;;;;;;2.55;1.05;;;;;;;;;;10405290;28;20271;-76
2023/10/16 10:34:48;;;;;;;1.08;1.00;;;;;;;;;;10435071;28;20222;-77
2023/10/16 10:39:49;;;;;;;1.40;1.40;;;;;;;;;;10414358;28;20214;-78
2023/10/16 10:44:54;;;;;;;2.70;1.30;;;;;;;;;;10426032;28;21146;-77
2023/10/16 10:50:13;;;;;;;1.50;1.50;;;;;;;;;;10406550;28;20293;-76
2023/10/16 10:55:21;;;;;;;2.35;1.40;;;;;;;;;;10430973;28;20271;-77
2023/10/16 11:05:30;;;;;;;0.73;0.73;;;;;;;;;;10425363;28;20310;-77
2023/10/16 11:10:32;;;;;;;0.95;0.82;;;;;;;;;;10392332;28;20222;-77
2023/10/16 11:15:33;;;;;;;0.60;0.60;;;;;;;;;;10415053;28;20684;-77
2023/10/16 11:20:37;;;;;;;1.88;0.70;;;;;;;;;;10412912;28;20584;-77
2023/10/16 11:25:38;;;;;;;0.50;0.50;;;;;;;;;;10420226;28;20310;-78
2023/10/16 11:30:39;;;;;;;0.40;0.40;;;;;;;;;;10434989;28;20227;-78
2023/10/16 11:35:47;;;;;;;0.40;0.40;;;;;;;;;;10411080;28;20213;-77
2023/10/16 11:40:50;;;;;;;0.40;0.40;;;;;;;;;;10411998;28;20231;-78
2023/10/16 11:45:56;;;;;;;0.50;0.50;;;;;;;;;;10432277;28;21847;-78
2023/10/16 11:51:10;;;;;;;1.95;0.50;;;;;;;;;;10430291;28;20222;-76
2023/10/16 11:56:13;;;;;;;0.70;0.70;;;;;;;;;;10427832;28;20218;-77
2023/10/16 12:01:14;;;;;;;1.08;0.57;;;;;;;;;;10422486;28;20310;-79
2023/10/16 12:06:17;;;;;;;0.30;0.30;;;;;;;;;;10436822;28;20214;-77
2023/10/16 12:11:18;;;;;;;0.50;0.50;;;;;;;;;;10414792;28;20223;-78
2023/10/16 12:16:24;;;;;;;0.40;0.40;;;;;;;;;;10435830;28;20215;-79
2023/10/16 12:21:28;;;;;;;0.32;0.32;;;;;;;;;;10418430;28;20260;-78
2023/10/16 12:26:29;;;;;;;0.30;0.30;;;;;;;;;;10409452;28;20219;-78
2023/10/16 12:31:30;;;;;;;0.45;0.30;;;;;;;;;;10402289;28;20591;-79
2023/10/16 12:36:32;;;;;;;1.55;0.30;;;;;;;;;;10420613;28;20241;-78
2023/10/16 12:41:33;;;;;;;0.43;0.43;;;;;;;;;;10418271;28;20773;-78
2023/10/16 12:46:35;;;;;;;0.60;0.60;;;;;;;;;;10396505;28;20834;-78
2023/10/16 12:51:38;;;;;;;0.65;0.65;;;;;;;;;;10418571;28;20219;-78
2023/10/16 12:56:43;;;;;;;0.75;0.75;;;;;;;;;;10431790;28;20898;-78
2023/10/16 13:01:48;;;;;;;3.92;2.30;;;;;;;;;;10414729;28;20230;-78
2023/10/16 13:06:49;;;;;;;0.50;0.50;;;;;;;;;;10414429;28;23624;-79
2023/10/16 13:11:50;;;;;;;0.80;0.80;;;;;;;;;;10408566;28;20222;-81
2023/10/16 13:16:54;;;;;;;1.58;0.70;;;;;;;;;;10395536;28;20206;-78
2023/10/16 13:21:55;;;;;;;1.45;0.95;;;;;;;;;;10427956;28;21067;-78
2023/10/16 13:26:57;;;;;;;0.60;0.60;;;;;;;;;;10411296;28;20700;-80
2023/10/16 13:32:00;;;;;;;0.50;0.50;;;;;;;;;;10405982;28;20301;-78
2023/10/16 13:37:07;;;;;;;0.52;0.30;;;;;;;;;;10412479;28;20264;-77
2023/10/16 13:42:08;;;;;;;0.40;0.40;;;;;;;;;;10427618;28;20272;-78
2023/10/16 13:47:10;;;;;;;1.50;0.50;;;;;;;;;;10406003;28;20245;-78
2023/10/16 13:52:11;;;;;;;0.85;0.50;;;;;;;;;;10396944;28;20721;-78
2023/10/16 13:57:12;;;;;;;1.52;0.47;;;;;;;;;;10380291;28;20206;-78
2023/10/16 14:02:13;;;;;;;0.40;0.40;;;;;;;;;;10430567;28;20207;-77
2023/10/16 14:07:19;;;;;;;0.40;0.40;;;;;;;;;;10415197;28;20292;-77
2023/10/16 14:12:25;;;;;;;0.60;0.50;;;;;;;;;;10397947;28;20219;-78
2023/10/16 14:17:31;;;;;;;0.50;0.50;;;;;;;;;;10406379;28;20241;-79
2023/10/16 14:22:33;;;;;;;0.63;0.63;;;;;;;;;;10414350;28;20322;-76
2023/10/16 14:27:36;;;;;;;0.50;0.50;;;;;;;;;;10401133;28;20219;-79
2023/10/16 14:32:41;;;;;;;0.50;0.40;;;;;;;;;;10425660;28;20222;-78
2023/10/16 14:37:43;;;;;;;0.90;0.90;;;;;;;;;;10441992;28;21266;-79
2023/10/16 14:42:44;;;;;;;0.65;0.63;;;;;;;;;;10448046;28;20210;-79
2023/10/16 14:47:45;;;;;;;1.30;0.50;;;;;;;;;;10430477;28;20799;-80
2023/10/16 14:52:47;;;;;;;0.40;0.40;;;;;;;;;;10414848;28;20230;-79
2023/10/16 14:57:49;;;;;;;0.47;0.47;;;;;;;;;;10446222;28;20446;-78
2023/10/16 15:02:50;;;;;;;0.50;0.50;;;;;;;;;;10441601;28;20234;-80
2023/10/16 15:07:51;;;;;;;1.35;0.50;;;;;;;;;;10439664;28;20720;-80
2023/10/16 15:12:52;;;;;;;0.82;0.80;;;;;;;;;;10407071;28;20231;-79
2023/10/16 15:17:54;;;;;;;0.43;0.43;;;;;;;;;;10442773;28;20304;-80
2023/10/16 15:22:55;;;;;;;0.50;0.50;;;;;;;;;;10434368;28;20230;-79
2023/10/16 15:27:56;;;;;;;1.20;0.52;;;;;;;;;;10437520;28;20234;-80
2023/10/16 15:33:00;;;;;;;1.08;0.70;;;;;;;;;;10436568;28;20715;-80
2023/10/16 15:38:02;;;;;;;0.73;0.73;;;;;;;;;;10428586;28;20603;-80
2023/10/16 15:43:03;;;;;;;0.63;0.63;;;;;;;;;;10418414;28;20219;-80
2023/10/16 15:48:09;;;;;;;0.80;0.80;;;;;;;;;;10428427;28;20211;-79
2023/10/16 15:53:10;;;;;;;0.73;0.73;;;;;;;;;;10412436;28;20685;-78
2023/10/16 15:58:11;;;;;;;0.40;0.40;;;;;;;;;;10431606;28;20286;-79
2023/10/16 16:03:14;;;;;;;0.55;0.55;;;;;;;;;;10427833;28;20369;-79
2023/10/16 16:08:24;;;;;;;0.75;0.40;;;;;;;;;;10443768;28;20680;-79
2023/10/16 16:13:28;;;;;;;1.08;0.40;;;;;;;;;;10410393;28;20222;-80
2023/10/16 16:18:29;;;;;;;0.50;0.50;;;;;;;;;;10408369;28;20211;-79
2023/10/16 16:23:30;;;;;;;0.60;0.60;;;;;;;;;;10431371;28;20218;-77
2023/10/16 16:28:31;;;;;;;2.20;0.80;;;;;;;;;;10404415;28;20223;-78
2023/10/16 16:33:32;;;;;;;0.93;0.93;;;;;;;;;;10428999;28;20240;-77
2023/10/16 16:38:33;;;;;;;1.30;1.30;;;;;;;;;;10418220;28;20213;-77
2023/10/16 16:43:34;;;;;;;0.90;0.90;;;;;;;;;;10413166;28;20223;-77
2023/10/16 16:48:35;;;;;;;1.17;1.17;;;;;;;;;;10423761;28;20719;-77
2023/10/16 16:53:36;;;;;;;0.90;0.90;;;;;;;;;;10431399;28;20238;-75
2023/10/16 16:58:38;;;;;;;0.90;0.90;;;;;;;;;;10408365;28;20333;-78
2023/10/16 17:03:40;;;;;;;1.80;0.85;;;;;;;;;;10410271;28;20218;-76
2023/10/16 17:08:41;;;;;;;0.98;0.98;;;;;;;;;;10407934;28;20211;-77
2023/10/16 17:13:43;;;;;;;2.30;2.20;;;;;;;;;;10414081;28;20287;-77
2023/10/16 17:18:44;;;;;;;2.80;2.60;;;;;;;;;;10390187;28;20778;-77
2023/10/16 17:23:47;;;;;;;1.88;1.77;;;;;;;;;;10399757;28;20226;-77
2023/10/16 17:28:48;;;;;;;1.83;1.58;;;;;;;;;;10388970;28;20223;-77
2023/10/16 17:33:49;;;;;;;1.40;1.30;;;;;;;;;;10407207;28;20284;-77
2023/10/16 17:38:50;;;;;;;1.00;1.00;;;;;;;;;;10404382;28;20217;-77
2023/10/16 17:43:51;;;;;;;1.02;1.02;;;;;;;;;;10426048;28;20214;-78
2023/10/16 17:48:54;;;;;;;1.10;1.10;;;;;;;;;;10391462;28;20223;-76
2023/10/16 17:53:55;;;;;;;2.38;1.52;;;;;;;;;;10399629;28;20215;-76
2023/10/16 17:58:57;;;;;;;1.67;1.67;;;;;;;;;;10390425;28;21002;-77
2023/10/16 18:03:58;;;;;;;1.70;1.60;;;;;;;;;;10394450;28;20711;-78
2023/10/16 18:09:01;;;;;;;1.73;1.63;;;;;;;;;;10404800;28;20211;-77
2023/10/16 18:14:03;;;;;;;1.80;1.70;;;;;;;;;;10406490;28;20741;-78
2023/10/16 18:19:04;;;;;;;1.90;1.80;;;;;;;;;;10403418;28;21463;-76
2023/10/16 18:24:05;;;;;;;2.88;2.35;;;;;;;;;;10404565;28;20246;-75
2023/10/16 18:29:11;;;;;;;2.50;2.33;;;;;;;;;;10371935;28;20219;-76
2023/10/16 18:34:13;;;;;;;2.88;2.67;;;;;;;;;;10381256;28;20707;-77
2023/10/16 18:39:17;;;;;;;2.70;2.50;;;;;;;;;;10348837;28;20298;-77
2023/10/16 18:44:18;;;;;;;2.35;2.25;;;;;;;;;;10379797;28;20207;-77
2023/10/16 18:49:20;;;;;;;5.15;4.53;;;;;;;;;;10360607;28;20215;-78
2023/10/16 18:54:21;;;;;;;4.28;3.90;;;;;;;;;;10368323;28;20245;-77
2023/10/16 18:59:22;;;;;;;2.30;2.20;;;;;;;;;;10373462;28;20422;-77
2023/10/16 19:04:23;;;;;;;2.08;1.98;;;;;;;;;;10387146;28;20217;-77
2023/10/16 19:09:27;;;;;;;3.30;3.10;;;;;;;;;;10373835;28;21755;-77
2023/10/16 19:14:28;;;;;;;3.85;3.22;;;;;;;;;;10370418;28;21851;-77
2023/10/16 19:19:30;;;;;;;3.80;3.50;;;;;;;;;;10394864;28;20306;-78
2023/10/16 19:24:31;;;;;;;2.50;2.40;;;;;;;;;;10371529;28;20669;-77
2023/10/16 19:29:32;;;;;;;2.63;2.50;;;;;;;;;;10401999;28;20226;-78
2023/10/16 19:34:33;;;;;;;2.50;2.35;;;;;;;;;;10392200;28;20215;-77
2023/10/16 19:39:35;;;;;;;2.50;2.40;;;;;;;;;;10413834;28;20229;-78
2023/10/16 19:44:37;;;;;;;2.72;2.53;;;;;;;;;;10411335;28;20227;-76
2023/10/16 19:49:38;;;;;;;2.25;2.17;;;;;;;;;;10433038;28;20839;-76
2023/10/16 19:54:39;;;;;;;2.65;2.45;;;;;;;;;;10391958;28;20206;-78
2023/10/16 19:59:40;;;;;;;1.83;1.73;;;;;;;;;;10412343;28;20966;-77
2023/10/16 20:04:41;;;;;;;2.03;1.92;;;;;;;;;;10397613;28;20214;-76
2023/10/16 20:09:42;;;;;;;2.08;2.00;;;;;;;;;;10418833;28;20218;-78
2023/10/16 20:14:48;;;;;;;2.67;2.47;;;;;;;;;;10436848;28;20239;-79
2023/10/16 20:19:51;;;;;;;2.60;2.45;;;;;;;;;;10402558;28;20272;-76
2023/10/16 20:24:53;;;;;;;2.35;2.25;;;;;;;;;;10417782;28;20219;-78
2023/10/16 20:29:54;;;;;;;2.40;2.30;;;;;;;;;;10433358;28;20282;-78
2023/10/16 20:34:55;;;;;;;2.58;2.47;;;;;;;;;;10412853;28;20280;-77
2023/10/16 20:39:57;;;;;;;2.30;2.20;;;;;;;;;;10420925;28;20206;-78
2023/10/16 20:45:00;;;;;;;1.95;1.90;;;;;;;;;;10429746;28;20221;-80
2023/10/16 20:50:01;;;;;;;5.65;2.08;;;;;;;;;;10416012;28;20709;-78
2023/10/16 20:55:03;;;;;;;4.15;2.03;;;;;;;;;;10436798;28;20783;-79
2023/10/16 21:00:14;;;;;;;1.80;1.70;;;;;;;;;;10439581;28;20241;-78
2023/10/16 21:05:16;;;;;;;2.40;2.30;;;;;;;;;;10439508;28;20629;-79
2023/10/16 21:10:17;;;;;;;2.08;1.88;;;;;;;;;;10417454;28;20297;-79
2023/10/16 21:15:18;;;;;;;2.70;2.50;;;;;;;;;;10419817;28;20270;-78
2023/10/16 21:20:19;;;;;;;2.13;2.03;;;;;;;;;;10417024;28;20198;-79
2023/10/16 21:25:24;;;;;;;3.22;2.92;;;;;;;;;;10430968;28;20233;-80
2023/10/16 21:30:25;;;;;;;2.90;2.22;;;;;;;;;;10411716;28;20227;-79
2023/10/16 21:35:26;;;;;;;2.85;2.65;;;;;;;;;;10424428;28;20215;-81
2023/10/16 21:40:27;;;;;;;3.22;2.83;;;;;;;;;;10420881;28;20242;-79
2023/10/16 21:45:28;;;;;;;4.38;2.97;;;;;;;;;;10419256;28;20214;-80
2023/10/16 21:50:29;;;;;;;3.78;3.08;;;;;;;;;;10442234;28;20304;-80
2023/10/16 21:55:30;;;;;;;3.40;3.05;;;;;;;;;;10437021;28;20666;-80
2023/10/16 22:00:38;;;;;;;2.75;2.60;;;;;;;;;;10433444;28;20276;-79
2023/10/16 22:05:40;;;;;;;2.35;2.25;;;;;;;;;;10435890;28;20206;-79
2023/10/16 22:10:42;;;;;;;2.60;2.40;;;;;;;;;;10396263;28;20226;-77
2023/10/16 22:15:43;;;;;;;2.80;2.50;;;;;;;;;;10432449;28;20305;-77
2023/10/16 22:20:44;;;;;;;3.70;2.70;;;;;;;;;;10394670;28;20225;-78
2023/10/16 22:25:50;;;;;;;2.95;2.75;;;;;;;;;;10391881;28;20310;-77
2023/10/16 22:30:51;;;;;;;2.95;2.75;;;;;;;;;;10412676;28;20588;-79
2023/10/16 22:35:52;;;;;;;2.90;2.70;;;;;;;;;;10397856;28;20210;-77
2023/10/16 22:40:56;;;;;;;3.20;2.97;;;;;;;;;;10395788;28;20237;-77
2023/10/16 22:45:57;;;;;;;3.00;2.72;;;;;;;;;;10394522;28;20215;-76
2023/10/16 22:50:58;;;;;;;3.05;2.85;;;;;;;;;;10408745;28;20233;-77
2023/10/16 22:56:04;;;;;;;3.25;2.95;;;;;;;;;;10410985;28;20241;-77
2023/10/16 23:01:05;;;;;;;3.00;2.80;;;;;;;;;;10427850;28;20211;-77
2023/10/16 23:06:07;;;;;;;2.78;2.58;;;;;;;;;;10409176;28;20302;-76
2023/10/16 23:11:23;;;;;;;3.38;3.00;;;;;;;;;;10397199;28;20597;-78
2023/10/16 23:16:27;;;;;;;2.83;2.63;;;;;;;;;;10430604;28;20683;-78
2023/10/16 23:21:28;;;;;;;2.35;2.25;;;;;;;;;;10428959;28;20583;-75
2023/10/16 23:26:29;;;;;;;2.50;2.40;;;;;;;;;;10429358;28;20277;-76
2023/10/16 23:31:32;;;;;;;2.95;2.75;;;;;;;;;;10409850;28;20318;-77
2023/10/16 23:36:37;;;;;;;2.85;2.65;;;;;;;;;;10410447;28;20536;-77
2023/10/16 23:41:41;;;;;;;3.00;2.70;;;;;;;;;;10435672;28;20273;-77
2023/10/16 23:46:43;;;;;;;3.22;3.00;;;;;;;;;;10419836;28;20231;-75
2023/10/16 23:51:47;;;;;;;3.30;3.03;;;;;;;;;;10419797;28;20284;-77
